Anchorage, AK (99501)

5:21 AM AKST on February 19, 2017 (GMT -0900)
Government Hill | | Change Station

Elev 94 ft 61.23 °N, 149.89 °W | Updated 6 minutes ago

Light Snow
Light Snow Mist
28.3 °F
Feels Like 28 °F
N
2.0
Wind Variable Wind from SSE
Gusts 7.0 mph

Today
High -- | Low -- °F
--% Chance of Precip.
Yesterday
High -- | Low -- °F
Precip. -- in
Pressure 29.63 in
Visibility 0.8 miles
Clouds Overcast 700 ft
Windchill 28 °F
Dew Point 27 °F
Humidity 95%
Rainfall 0.00 in
Snow Depth Not available.
8:28 AM 5:58 PM
Last Quarter, 43% visible
SPECI PAMR 191411Z 19006KT 3/4SM -SN BR OVC007 M03/M04 A2963 RMK AO2 P0001 T10281039
Pressure 29.63 in
Visibility 0.8 miles
Clouds Overcast 700 ft
Windchill 28 °F
Dew Point 27 °F
Humidity 95%
Rainfall 0.00 in
Snow Depth Not available.
8:28 AM 5:58 PM
Last Quarter, 43% visible
SPECI PAMR 191411Z 19006KT 3/4SM -SN BR OVC007 M03/M04 A2963 RMK AO2 P0001 T10281039

Get Your Daily Forecast Email!

Thanks for signing up!

Be on the lookout for a verification email in your inbox.

You'll start receiving the daily forecast at 8 AM.

×

10-Day Weather Forecast

Almanac

Astronomy

Feb. 19, 2017 Rise Set
Actual Time
Civil Twilight
Nautical Twilight
Astronomical Twilight
Moon
Length of Visible Light
Length of Day
Tomorrow will be .
, % of the Moon is Illuminated

Today's Extremes

State Highs State Lows

Community

WunderPhotos

Upload Photos

1,962,540 photos uploaded!

WunderBlog® & News

Nearby

Air Quality

  Air Quality AQ Index Pollutant
Not available.

Snow Depth

Station Depth Elevation

Earthquake Activity

City Distance Mag. Time & Date
Minimum magnitude displayed is 2.5.

Coastal Water Temperatures

Place Temperature

Stations

Nearby Weather Stations

Station Location Temp. Windchill Dew Point Humidity Wind Precip. Elev Updated Type
                   

Watches & Warnings

There are currently no watches in effect.